createdAt,value
2022-11-03T00:00:15.944Z,99.99
2022-11-03T00:01:05.934Z,99.99
2022-11-03T00:01:56.161Z,99.99
2022-11-03T00:02:46.021Z,99.99
2022-11-03T00:03:35.903Z,99.99
2022-11-03T00:04:25.902Z,99.99
2022-11-03T00:05:15.895Z,99.99
2022-11-03T00:06:05.901Z,99.99
2022-11-03T00:06:55.880Z,99.99
2022-11-03T00:07:45.853Z,99.99
2022-11-03T00:08:37.754Z,99.99
2022-11-03T00:09:25.843Z,99.99
2022-11-03T00:10:15.824Z,99.99
2022-11-03T00:11:05.849Z,99.99
2022-11-03T00:11:55.807Z,99.99
2022-11-03T00:12:45.807Z,99.99
2022-11-03T00:13:35.813Z,99.99
2022-11-03T00:14:25.820Z,99.99
2022-11-03T00:15:15.780Z,99.99
2022-11-03T00:16:05.803Z,99.99
2022-11-03T00:16:55.758Z,99.99
2022-11-03T00:17:45.760Z,99.99
2022-11-03T00:18:35.732Z,99.99
2022-11-03T00:19:25.724Z,99.99
2022-11-03T00:20:15.750Z,99.99
2022-11-03T00:21:05.740Z,99.99
2022-11-03T00:21:55.702Z,99.99
2022-11-03T00:22:45.699Z,99.99
2022-11-03T00:23:35.682Z,99.99
2022-11-03T00:24:25.671Z,99.99
2022-11-03T00:25:15.651Z,99.99
2022-11-03T00:26:05.888Z,99.99
2022-11-03T00:26:55.646Z,99.99
2022-11-03T00:27:45.641Z,99.99
2022-11-03T00:28:35.639Z,99.99
2022-11-03T00:29:25.694Z,99.99
2022-11-03T00:30:15.610Z,99.99
2022-11-03T00:31:05.614Z,99.99
2022-11-03T00:31:55.601Z,99.99
2022-11-03T00:32:45.603Z,99.99
2022-11-03T00:33:35.568Z,99.99
2022-11-03T00:34:25.558Z,99.99
2022-11-03T00:35:15.552Z,99.99
2022-11-03T00:36:05.542Z,99.99
2022-11-03T00:36:55.544Z,99.99
2022-11-03T00:37:45.556Z,99.99
2022-11-03T00:38:35.530Z,99.99
2022-11-03T00:39:25.499Z,99.99
2022-11-03T00:40:15.531Z,99.99
2022-11-03T00:41:05.499Z,99.99
2022-11-03T00:41:55.474Z,99.99
2022-11-03T00:42:45.473Z,99.99
2022-11-03T00:43:35.487Z,99.99
2022-11-03T00:44:25.440Z,99.99
2022-11-03T00:45:15.500Z,99.99
2022-11-03T00:46:05.449Z,99.99
2022-11-03T00:46:55.436Z,99.99
2022-11-03T00:47:45.450Z,99.99
2022-11-03T00:48:35.419Z,99.99
2022-11-03T00:49:25.683Z,99.99
2022-11-03T00:50:15.392Z,99.99
2022-11-03T00:51:05.389Z,99.99
2022-11-03T00:51:55.380Z,99.99
2022-11-03T00:52:45.356Z,99.99
2022-11-03T00:53:35.367Z,99.99
2022-11-03T00:54:25.347Z,99.99
2022-11-03T00:55:15.369Z,99.99
2022-11-03T00:56:05.328Z,99.99
2022-11-03T00:56:55.326Z,99.99
2022-11-03T00:57:45.309Z,99.99
2022-11-03T00:58:35.297Z,99.99
2022-11-03T00:59:25.283Z,99.99
2022-11-03T01:00:15.291Z,99.99
2022-11-03T01:01:07.517Z,99.99
2022-11-03T01:01:55.395Z,99.99
2022-11-03T01:02:45.266Z,99.99
2022-11-03T01:03:35.246Z,99.99
2022-11-03T01:04:25.245Z,99.99
2022-11-03T01:05:15.217Z,99.99
2022-11-03T01:06:05.214Z,99.99
2022-11-03T01:06:55.218Z,99.99
2022-11-03T01:07:45.219Z,99.99
2022-11-03T01:08:35.203Z,99.99
2022-11-03T01:09:25.168Z,99.99
2022-11-03T01:10:15.385Z,99.99
2022-11-03T01:11:05.144Z,99.99
2022-11-03T01:11:55.137Z,99.99
2022-11-03T01:12:45.135Z,99.99
2022-11-03T01:13:35.136Z,99.99
2022-11-03T01:14:25.107Z,99.99
2022-11-03T01:15:15.112Z,99.99
2022-11-03T01:16:05.295Z,99.99
2022-11-03T01:16:55.094Z,99.99
2022-11-03T01:17:45.083Z,99.99
2022-11-03T01:18:35.077Z,99.99
2022-11-03T01:19:25.090Z,99.99
2022-11-03T01:20:15.067Z,99.99
2022-11-03T01:21:05.042Z,99.99
2022-11-03T01:21:55.061Z,99.99
2022-11-03T01:22:45.044Z,99.99
2022-11-03T01:23:35.028Z,99.99
2022-11-03T01:24:25.009Z,99.99
2022-11-03T01:25:14.985Z,99.99
2022-11-03T01:26:04.972Z,99.99
2022-11-03T01:26:54.991Z,99.99
2022-11-03T01:27:45.205Z,99.99
2022-11-03T01:28:34.954Z,99.99
2022-11-03T01:29:24.947Z,99.99
2022-11-03T01:30:14.942Z,99.99
2022-11-03T01:31:04.921Z,99.99
2022-11-03T01:31:54.935Z,99.99
2022-11-03T01:32:44.923Z,99.99
2022-11-03T01:33:35.131Z,99.99
2022-11-03T01:34:24.897Z,99.99
2022-11-03T01:35:14.890Z,99.99
2022-11-03T01:36:04.883Z,99.99
2022-11-03T01:36:54.874Z,99.99
2022-11-03T01:37:44.869Z,99.99
2022-11-03T01:38:34.848Z,99.99
2022-11-03T01:39:24.888Z,99.99
2022-11-03T01:40:14.847Z,99.99
2022-11-03T01:41:04.830Z,99.99
2022-11-03T01:41:54.811Z,99.99
2022-11-03T01:42:44.789Z,99.99
2022-11-03T01:43:34.790Z,99.99
2022-11-03T01:44:24.790Z,99.99
2022-11-03T01:45:14.828Z,99.99
2022-11-03T01:46:04.780Z,99.99
2022-11-03T01:46:54.749Z,99.99
2022-11-03T01:47:44.842Z,99.99
2022-11-03T01:48:34.739Z,99.99
2022-11-03T01:49:24.735Z,99.99
2022-11-03T01:50:14.721Z,99.99
2022-11-03T01:51:04.719Z,99.99
2022-11-03T01:51:54.708Z,99.99
2022-11-03T01:52:44.684Z,99.99
2022-11-03T01:53:34.675Z,99.99
2022-11-03T01:54:24.678Z,99.99
2022-11-03T01:55:14.667Z,99.99
2022-11-03T01:56:04.688Z,99.99
2022-11-03T01:56:54.649Z,99.99
2022-11-03T01:57:44.623Z,99.99
2022-11-03T01:58:34.675Z,99.99
2022-11-03T01:59:24.627Z,99.99
2022-11-03T02:00:14.601Z,99.99
2022-11-03T02:01:04.633Z,99.99
2022-11-03T02:01:54.685Z,99.99
2022-11-03T02:02:44.566Z,99.99
2022-11-03T02:03:34.558Z,99.99
2022-11-03T02:04:24.552Z,99.99
2022-11-03T02:05:14.556Z,99.99
2022-11-03T02:06:04.534Z,99.99
2022-11-03T02:06:54.569Z,99.99
2022-11-03T02:07:44.754Z,99.99
2022-11-03T02:08:34.515Z,99.99
2022-11-03T02:09:24.514Z,99.99
2022-11-03T02:10:14.504Z,99.99
2022-11-03T02:11:04.495Z,99.99
2022-11-03T02:11:54.494Z,99.99
2022-11-03T02:12:44.483Z,99.99
2022-11-03T02:13:34.503Z,99.99
2022-11-03T02:14:24.443Z,99.99
2022-11-03T02:15:14.455Z,99.99
2022-11-03T02:16:04.440Z,99.99
2022-11-03T02:16:54.427Z,99.99
2022-11-03T02:17:44.430Z,99.99
2022-11-03T02:18:34.420Z,99.99
2022-11-03T02:19:24.433Z,99.99
2022-11-03T02:20:14.400Z,99.99
2022-11-03T02:21:04.377Z,99.99
2022-11-03T02:21:54.383Z,99.99
2022-11-03T02:22:44.358Z,99.99
2022-11-03T02:23:34.341Z,99.99
2022-11-03T02:24:24.332Z,99.99
2022-11-03T02:25:14.341Z,99.99
2022-11-03T02:26:04.319Z,99.99
2022-11-03T02:26:54.326Z,99.99
2022-11-03T02:27:44.313Z,99.99
2022-11-03T02:28:34.300Z,99.99
2022-11-03T02:29:24.276Z,99.99
2022-11-03T02:30:14.289Z,99.99
2022-11-03T02:31:04.281Z,99.99
2022-11-03T02:31:54.267Z,99.99
2022-11-03T02:32:44.248Z,99.99
2022-11-03T02:33:34.234Z,99.99
2022-11-03T02:34:24.239Z,99.99
2022-11-03T02:35:14.226Z,99.99
2022-11-03T02:36:04.211Z,99.99
2022-11-03T02:36:54.243Z,99.99
2022-11-03T02:37:44.210Z,99.99
2022-11-03T02:38:34.185Z,99.99
2022-11-03T02:39:24.207Z,99.99
2022-11-03T02:40:14.170Z,99.99
2022-11-03T02:41:04.151Z,99.99
2022-11-03T02:41:54.142Z,99.99
2022-11-03T02:42:44.205Z,99.99
2022-11-03T02:43:34.139Z,99.99
2022-11-03T02:44:24.105Z,99.99
2022-11-03T02:45:17.304Z,99.99
2022-11-03T02:46:04.105Z,99.99
2022-11-03T02:46:54.085Z,99.99
2022-11-03T02:47:44.108Z,99.99
2022-11-03T02:48:34.094Z,99.99
2022-11-03T02:49:24.058Z,99.99
2022-11-03T02:50:14.060Z,99.99
2022-11-03T02:51:04.061Z,99.99
2022-11-03T02:51:54.050Z,99.99
2022-11-03T02:52:44.025Z,99.99
2022-11-03T02:53:34.029Z,99.99
2022-11-03T02:54:24.291Z,99.99
2022-11-03T02:55:13.996Z,99.99
2022-11-03T02:56:03.993Z,99.99
2022-11-03T02:56:53.973Z,99.99
2022-11-03T02:57:43.956Z,99.99
2022-11-03T02:58:33.958Z,99.99
2022-11-03T02:59:23.946Z,99.99
2022-11-03T03:00:13.965Z,99.99
2022-11-03T03:01:04.013Z,99.99
2022-11-03T03:01:54.021Z,99.99
2022-11-03T03:02:43.912Z,99.99
2022-11-03T03:03:33.925Z,99.99
2022-11-03T03:04:23.915Z,99.99
2022-11-03T03:05:13.890Z,99.99
2022-11-03T03:06:03.893Z,99.99
2022-11-03T03:06:53.862Z,99.99
2022-11-03T03:07:43.867Z,99.99
2022-11-03T03:08:33.862Z,99.99
2022-11-03T03:09:23.826Z,99.99
2022-11-03T03:10:13.845Z,99.99
2022-11-03T03:11:03.831Z,99.99
2022-11-03T03:11:53.812Z,99.99
2022-11-03T03:12:43.792Z,99.99
2022-11-03T03:13:33.804Z,99.99
2022-11-03T03:14:23.783Z,99.99
2022-11-03T03:15:13.790Z,99.99
2022-11-03T03:16:03.784Z,99.99
2022-11-03T03:16:53.761Z,99.99
2022-11-03T03:17:43.735Z,99.99
2022-11-03T03:18:33.740Z,99.99
2022-11-03T03:19:23.751Z,99.99
2022-11-03T03:20:13.730Z,99.99
2022-11-03T03:21:03.708Z,99.99
2022-11-03T03:21:53.728Z,99.99
2022-11-03T03:22:43.705Z,99.99
2022-11-03T03:23:33.678Z,99.99
2022-11-03T03:24:23.683Z,99.99
2022-11-03T03:25:13.650Z,99.99
2022-11-03T03:26:03.642Z,99.99
2022-11-03T03:26:53.649Z,99.99
2022-11-03T03:27:43.903Z,99.99
2022-11-03T03:28:33.650Z,99.99
2022-11-03T03:29:23.605Z,99.99
2022-11-03T03:30:13.617Z,99.99
2022-11-03T03:31:03.589Z,99.99
2022-11-03T03:31:53.608Z,99.99
2022-11-03T03:32:43.570Z,99.99
2022-11-03T03:33:33.594Z,99.99
2022-11-03T03:34:34.579Z,99.99
2022-11-03T03:35:14.549Z,99.99
2022-11-03T03:36:03.551Z,99.99
2022-11-03T03:36:53.529Z,99.99
2022-11-03T03:37:43.508Z,99.99
2022-11-03T03:38:33.500Z,99.99
2022-11-03T03:39:23.699Z,99.99
2022-11-03T03:40:13.500Z,99.99
2022-11-03T03:41:08.061Z,99.99
2022-11-03T03:41:54.516Z,99.99
2022-11-03T03:42:43.458Z,99.99
2022-11-03T03:43:33.457Z,99.99
2022-11-03T03:44:23.456Z,99.99
2022-11-03T03:45:13.477Z,99.99
2022-11-03T03:46:03.437Z,99.99
2022-11-03T03:46:53.421Z,99.99
2022-11-03T03:47:43.408Z,99.99
2022-11-03T03:48:33.426Z,99.99
2022-11-03T03:49:23.376Z,99.99
2022-11-03T03:50:13.388Z,99.99
2022-11-03T03:51:03.616Z,99.99
2022-11-03T03:51:53.371Z,99.99
2022-11-03T03:52:43.413Z,99.99
2022-11-03T03:53:33.358Z,99.99
2022-11-03T03:54:23.338Z,99.99
2022-11-03T03:55:13.377Z,99.99
2022-11-03T03:56:03.327Z,99.99
2022-11-03T03:56:53.349Z,99.99
2022-11-03T03:57:43.287Z,99.99
2022-11-03T03:58:33.305Z,99.99
2022-11-03T03:59:23.272Z,99.99
2022-11-03T04:00:13.274Z,99.99
2022-11-03T04:01:03.304Z,99.99
2022-11-03T04:01:53.438Z,99.99
2022-11-03T04:02:43.267Z,99.99
2022-11-03T04:03:33.235Z,99.99
2022-11-03T04:04:23.219Z,99.99
2022-11-03T04:05:13.229Z,99.99
2022-11-03T04:06:03.203Z,99.99
2022-11-03T04:06:53.190Z,99.99
2022-11-03T04:07:43.960Z,99.99
2022-11-03T04:08:33.214Z,99.99
2022-11-03T04:09:23.168Z,99.99
2022-11-03T04:10:13.164Z,99.99
2022-11-03T04:11:03.152Z,99.99
2022-11-03T04:11:53.132Z,99.99
2022-11-03T04:12:43.133Z,99.99
2022-11-03T04:13:33.134Z,99.99
2022-11-03T04:14:23.167Z,99.99
2022-11-03T04:15:13.108Z,99.99
2022-11-03T04:16:03.110Z,99.99
2022-11-03T04:16:53.098Z,99.99
2022-11-03T04:17:43.095Z,99.99
2022-11-03T04:18:33.058Z,99.99
2022-11-03T04:19:23.057Z,99.99
2022-11-03T04:20:13.080Z,99.99
2022-11-03T04:21:03.052Z,99.99
2022-11-03T04:21:53.020Z,99.99
2022-11-03T04:22:43.041Z,99.99
2022-11-03T04:23:33.001Z,99.99
2022-11-03T04:24:23.017Z,99.99
2022-11-03T04:25:12.982Z,99.99
2022-11-03T04:26:02.989Z,99.99
2022-11-03T04:26:52.968Z,99.99
2022-11-03T04:27:42.964Z,99.99
2022-11-03T04:28:32.989Z,99.99
2022-11-03T04:29:22.966Z,99.99
2022-11-03T04:30:12.939Z,99.99
2022-11-03T04:31:02.934Z,99.99
2022-11-03T04:31:52.905Z,99.99
2022-11-03T04:32:42.948Z,99.99
2022-11-03T04:33:32.899Z,99.99
2022-11-03T04:34:22.888Z,99.99
2022-11-03T04:35:12.867Z,99.99
2022-11-03T04:36:02.868Z,99.99
2022-11-03T04:36:52.868Z,99.99
2022-11-03T04:37:47.323Z,99.99
2022-11-03T04:38:32.925Z,99.99
2022-11-03T04:39:22.836Z,99.99
2022-11-03T04:40:12.806Z,99.99
2022-11-03T04:41:02.807Z,99.99
2022-11-03T04:41:52.798Z,99.99
2022-11-03T04:42:42.807Z,99.99
2022-11-03T04:43:32.776Z,99.99
2022-11-03T04:44:22.805Z,99.99
2022-11-03T04:45:12.776Z,99.99
2022-11-03T04:46:02.767Z,99.99
2022-11-03T04:46:52.758Z,99.99
2022-11-03T04:47:42.738Z,99.99
2022-11-03T04:48:32.725Z,99.99
2022-11-03T04:49:22.736Z,99.99
2022-11-03T04:50:12.724Z,99.99
2022-11-03T04:51:02.716Z,99.99
2022-11-03T04:51:52.684Z,99.99
2022-11-03T04:52:42.678Z,99.99
2022-11-03T04:53:32.691Z,99.99
2022-11-03T04:54:22.691Z,99.99
2022-11-03T04:55:12.665Z,99.99
2022-11-03T04:56:07.177Z,99.99
2022-11-03T04:56:52.664Z,99.99
2022-11-03T04:57:42.643Z,99.99
2022-11-03T04:58:32.634Z,99.99
2022-11-03T04:59:22.640Z,99.99
2022-11-03T05:00:12.593Z,99.99
2022-11-03T05:01:02.642Z,99.99
2022-11-03T05:01:52.817Z,99.99
2022-11-03T05:02:42.564Z,99.99
2022-11-03T05:03:32.561Z,99.99
2022-11-03T05:04:22.580Z,99.99
2022-11-03T05:05:12.551Z,99.99
2022-11-03T05:06:02.531Z,99.99
2022-11-03T05:06:52.591Z,99.99
2022-11-03T05:07:42.510Z,99.99
2022-11-03T05:08:32.499Z,99.99
2022-11-03T05:09:22.513Z,99.99
2022-11-03T05:10:24.713Z,99.99
2022-11-03T05:11:02.482Z,99.99
2022-11-03T05:11:52.462Z,99.99
2022-11-03T05:12:42.452Z,99.99
2022-11-03T05:13:32.444Z,99.99
2022-11-03T05:14:22.443Z,99.99
2022-11-03T05:15:12.454Z,99.99
2022-11-03T05:16:02.441Z,99.99
2022-11-03T05:16:52.424Z,99.99
2022-11-03T05:17:42.400Z,99.99
2022-11-03T05:18:32.391Z,99.99
2022-11-03T05:19:22.389Z,99.99
2022-11-03T05:20:12.390Z,99.99
2022-11-03T05:21:02.380Z,99.99
2022-11-03T05:21:52.371Z,99.99
2022-11-03T05:22:42.354Z,99.99
2022-11-03T05:23:32.368Z,99.99
2022-11-03T05:24:22.322Z,99.99
2022-11-03T05:25:12.319Z,99.99
2022-11-03T05:26:02.319Z,99.99
2022-11-03T05:26:52.306Z,99.99
2022-11-03T05:27:42.309Z,99.99
2022-11-03T05:28:32.286Z,99.99
2022-11-03T05:29:22.298Z,99.99
2022-11-03T05:30:12.260Z,99.99
2022-11-03T05:31:02.271Z,99.99
2022-11-03T05:31:52.246Z,99.99
2022-11-03T05:32:42.239Z,99.99
2022-11-03T05:33:32.252Z,99.99
2022-11-03T05:34:22.253Z,99.99
2022-11-03T05:35:12.228Z,99.99
2022-11-03T05:36:02.196Z,99.99
2022-11-03T05:36:52.187Z,99.99
2022-11-03T05:37:42.197Z,99.99
2022-11-03T05:38:32.175Z,99.99
2022-11-03T05:39:22.411Z,99.99
2022-11-03T05:40:12.156Z,99.99
2022-11-03T05:41:02.154Z,99.99
2022-11-03T05:41:52.132Z,99.99
2022-11-03T05:42:42.148Z,99.99
2022-11-03T05:43:32.126Z,99.99
2022-11-03T05:44:22.112Z,99.99
2022-11-03T05:45:12.113Z,99.99
2022-11-03T05:46:02.139Z,99.99
2022-11-03T05:46:52.067Z,99.99
2022-11-03T05:47:42.085Z,99.99
2022-11-03T05:48:32.092Z,99.99
2022-11-03T05:49:22.056Z,99.99
2022-11-03T05:50:12.036Z,99.99
2022-11-03T05:51:02.046Z,99.99
2022-11-03T05:51:52.025Z,99.99
2022-11-03T05:52:42.016Z,99.99
2022-11-03T05:53:32.018Z,99.99
2022-11-03T05:54:22.048Z,99.99
2022-11-03T05:55:11.992Z,99.99
2022-11-03T05:56:01.984Z,99.99
2022-11-03T05:56:51.966Z,99.99
2022-11-03T05:57:41.954Z,99.99
2022-11-03T05:58:31.942Z,99.99
2022-11-03T05:59:21.953Z,99.99
2022-11-03T06:00:12.162Z,99.99
2022-11-03T06:01:01.914Z,99.99
2022-11-03T06:01:52.079Z,99.99
2022-11-03T06:02:42.015Z,99.99
2022-11-03T06:03:31.894Z,99.99
2022-11-03T06:04:21.884Z,99.99
2022-11-03T06:05:11.872Z,99.99
2022-11-03T06:06:02.111Z,99.99
2022-11-03T06:06:51.858Z,99.99
2022-11-03T06:07:41.834Z,99.99
2022-11-03T06:08:31.840Z,99.99
2022-11-03T06:09:21.839Z,99.99
2022-11-03T06:10:11.804Z,99.99
2022-11-03T06:11:01.801Z,99.99
2022-11-03T06:11:51.819Z,99.99
2022-11-03T06:12:41.796Z,99.99
2022-11-03T06:13:31.784Z,99.99
2022-11-03T06:14:24.330Z,99.99
2022-11-03T06:15:11.753Z,99.99
2022-11-03T06:16:01.778Z,99.99
2022-11-03T06:16:51.739Z,99.99
2022-11-03T06:17:41.938Z,99.99
2022-11-03T06:18:31.718Z,99.99
2022-11-03T06:19:21.720Z,99.99
2022-11-03T06:20:11.724Z,99.99
2022-11-03T06:21:01.710Z,99.99
2022-11-03T06:21:51.692Z,99.99
2022-11-03T06:22:41.681Z,99.99
2022-11-03T06:23:31.710Z,99.99
2022-11-03T06:24:21.659Z,99.99
2022-11-03T06:25:11.660Z,99.99
2022-11-03T06:26:01.656Z,99.99
2022-11-03T06:26:51.628Z,99.99
2022-11-03T06:27:41.623Z,99.99
2022-11-03T06:28:31.628Z,99.99
2022-11-03T06:29:21.647Z,99.99
2022-11-03T06:30:11.591Z,99.99
2022-11-03T06:31:01.579Z,99.99
2022-11-03T06:31:51.580Z,99.99
2022-11-03T06:32:41.586Z,99.99
2022-11-03T06:33:31.558Z,99.99
2022-11-03T06:34:21.547Z,99.99
2022-11-03T06:35:11.608Z,99.99
2022-11-03T06:36:01.547Z,99.99
2022-11-03T06:36:51.539Z,99.99
2022-11-03T06:37:41.546Z,99.99
2022-11-03T06:38:31.505Z,99.99
2022-11-03T06:39:21.504Z,99.99
2022-11-03T06:40:11.497Z,99.99
2022-11-03T06:41:01.515Z,99.99
2022-11-03T06:41:51.456Z,99.99
2022-11-03T06:42:41.470Z,99.99
2022-11-03T06:43:31.437Z,99.99
2022-11-03T06:44:21.437Z,99.99
2022-11-03T06:45:11.444Z,99.99
2022-11-03T06:46:01.422Z,99.99
2022-11-03T06:46:51.446Z,99.99
2022-11-03T06:47:41.413Z,99.99
2022-11-03T06:48:31.384Z,99.99
2022-11-03T06:49:21.382Z,99.99
2022-11-03T06:50:11.367Z,99.99
2022-11-03T06:51:01.370Z,99.99
2022-11-03T06:51:51.356Z,99.99
2022-11-03T06:52:41.475Z,99.99
2022-11-03T06:53:31.331Z,99.99
2022-11-03T06:54:21.331Z,99.99
2022-11-03T06:55:13.922Z,99.99
2022-11-03T06:56:02.317Z,99.99
2022-11-03T06:56:51.304Z,99.99
2022-11-03T06:57:41.320Z,99.99
2022-11-03T06:58:31.305Z,99.99
2022-11-03T06:59:21.273Z,99.99
2022-11-03T07:00:32.904Z,99.99
2022-11-03T07:01:03.498Z,99.99
2022-11-03T07:01:51.417Z,99.99
2022-11-03T07:02:41.316Z,99.99
2022-11-03T07:03:31.225Z,99.99
2022-11-03T07:04:21.212Z,99.99
2022-11-03T07:05:11.228Z,99.99
2022-11-03T07:06:01.215Z,99.99
2022-11-03T07:06:53.577Z,99.99
2022-11-03T07:07:41.221Z,99.99
2022-11-03T07:08:31.168Z,99.99
2022-11-03T07:09:21.161Z,99.99
2022-11-03T07:10:11.160Z,99.99
2022-11-03T07:11:01.143Z,99.99
2022-11-03T07:11:51.152Z,99.99
2022-11-03T07:12:41.131Z,99.99
2022-11-03T07:13:31.340Z,99.99
2022-11-03T07:14:21.117Z,99.99
2022-11-03T07:15:11.107Z,99.99
2022-11-03T07:16:01.107Z,99.99
2022-11-03T07:16:51.073Z,99.99
2022-11-03T07:17:41.073Z,99.99
2022-11-03T07:18:31.070Z,99.99
2022-11-03T07:19:21.202Z,99.99
2022-11-03T07:20:11.047Z,99.99
2022-11-03T07:21:01.049Z,99.99
2022-11-03T07:21:51.020Z,99.99
2022-11-03T07:22:41.015Z,99.99
2022-11-03T07:23:31.008Z,99.99
2022-11-03T07:24:21.011Z,99.99
2022-11-03T07:25:11.025Z,99.99
2022-11-03T07:26:00.977Z,99.99
2022-11-03T07:26:50.983Z,99.99
2022-11-03T07:27:40.977Z,99.99
2022-11-03T07:28:30.939Z,99.99
2022-11-03T07:29:20.932Z,99.99
2022-11-03T07:30:10.935Z,99.99
2022-11-03T07:31:00.944Z,99.99
2022-11-03T07:31:50.925Z,99.99
2022-11-03T07:32:40.916Z,99.99
2022-11-03T07:33:30.897Z,99.99
2022-11-03T07:34:20.889Z,99.99
2022-11-03T07:35:10.918Z,99.99
2022-11-03T07:36:14.933Z,99.99
2022-11-03T07:36:55.647Z,99.99
2022-11-03T07:37:40.897Z,99.99
2022-11-03T07:38:30.831Z,99.99
2022-11-03T07:39:20.830Z,99.99
2022-11-03T07:40:10.819Z,99.99
2022-11-03T07:41:00.831Z,99.99
2022-11-03T07:41:50.804Z,99.99
2022-11-03T07:42:40.787Z,99.99
2022-11-03T07:43:30.766Z,99.99
2022-11-03T07:44:20.786Z,99.99
2022-11-03T07:45:10.765Z,99.99
2022-11-03T07:46:00.746Z,99.99
2022-11-03T07:46:50.784Z,99.99
2022-11-03T07:47:40.757Z,99.99
2022-11-03T07:48:30.715Z,99.99
2022-11-03T07:49:20.724Z,99.99
2022-11-03T07:50:10.709Z,99.99
2022-11-03T07:51:00.696Z,99.99
2022-11-03T07:51:50.677Z,99.99
2022-11-03T07:52:40.777Z,99.99
2022-11-03T07:53:30.668Z,99.99
2022-11-03T07:54:20.645Z,99.99
2022-11-03T07:55:10.665Z,99.99
2022-11-03T07:56:00.683Z,99.99
2022-11-03T07:56:50.623Z,99.99
2022-11-03T07:57:40.607Z,99.99
2022-11-03T07:58:30.855Z,99.99
2022-11-03T07:59:20.651Z,99.99
2022-11-03T08:00:10.689Z,99.99
2022-11-03T08:01:00.597Z,99.99
2022-11-03T08:01:50.649Z,99.99
2022-11-03T08:02:40.597Z,99.99
2022-11-03T08:03:30.564Z,99.99
2022-11-03T08:04:20.583Z,99.99
2022-11-03T08:05:10.574Z,99.99
2022-11-03T08:06:02.704Z,99.99
2022-11-03T08:06:50.531Z,99.99
2022-11-03T08:07:40.521Z,99.99
2022-11-03T08:08:30.503Z,99.99
2022-11-03T08:09:20.501Z,99.99
2022-11-03T08:10:10.991Z,99.99
2022-11-03T08:11:00.553Z,99.99
2022-11-03T08:11:50.483Z,99.99
2022-11-03T08:12:40.448Z,99.99
2022-11-03T08:13:30.448Z,99.99
2022-11-03T08:14:20.439Z,99.99
2022-11-03T08:15:10.430Z,99.99
2022-11-03T08:16:00.458Z,99.99
2022-11-03T08:16:50.410Z,99.99
2022-11-03T08:17:40.400Z,99.99
2022-11-03T08:18:30.391Z,99.99
2022-11-03T08:19:20.382Z,99.99
2022-11-03T08:20:10.371Z,99.99
2022-11-03T08:21:00.395Z,99.99
2022-11-03T08:21:50.668Z,99.99
2022-11-03T08:22:41.643Z,99.99
2022-11-03T08:23:31.799Z,99.99
2022-11-03T08:24:20.319Z,99.99
2022-11-03T08:25:10.319Z,99.99
2022-11-03T08:26:00.323Z,99.99
2022-11-03T08:26:50.290Z,99.99
2022-11-03T08:27:40.523Z,99.99
2022-11-03T08:28:30.278Z,99.99
2022-11-03T08:29:20.277Z,99.99
2022-11-03T08:30:10.257Z,99.99
2022-11-03T08:31:02.091Z,99.99
2022-11-03T08:31:50.237Z,99.99
2022-11-03T08:32:40.257Z,99.99
2022-11-03T08:33:30.304Z,99.99
2022-11-03T08:34:20.220Z,99.99
2022-11-03T08:35:10.197Z,99.99
2022-11-03T08:36:00.189Z,99.99
2022-11-03T08:36:50.173Z,99.99
2022-11-03T08:37:40.186Z,99.99
2022-11-03T08:38:30.207Z,99.99
2022-11-03T08:39:20.157Z,99.99
2022-11-03T08:40:10.134Z,99.99
2022-11-03T08:41:00.170Z,99.99
2022-11-03T08:41:50.135Z,99.99
2022-11-03T08:42:40.105Z,99.99
2022-11-03T08:43:30.155Z,99.99
2022-11-03T08:44:20.117Z,99.99
2022-11-03T08:45:10.082Z,99.99
2022-11-03T08:46:08.218Z,99.99
2022-11-03T08:46:51.075Z,99.99
2022-11-03T08:47:40.070Z,99.99
2022-11-03T08:48:30.045Z,99.99
2022-11-03T08:49:20.031Z,99.99
2022-11-03T08:50:10.961Z,99.99
2022-11-03T08:51:00.024Z,99.99
2022-11-03T08:51:50.013Z,99.99
2022-11-03T08:52:40.042Z,99.99
2022-11-03T08:53:30.002Z,99.99
2022-11-03T08:54:19.973Z,99.99
2022-11-03T08:55:09.994Z,99.99
2022-11-03T08:56:00.227Z,99.99
2022-11-03T08:56:49.970Z,99.99
2022-11-03T08:57:39.943Z,99.99
2022-11-03T08:58:29.938Z,99.99
2022-11-03T08:59:19.939Z,99.99
2022-11-03T09:00:09.939Z,99.99
2022-11-03T09:00:59.913Z,99.99
2022-11-03T09:01:49.978Z,99.99
2022-11-03T09:02:39.968Z,99.99
2022-11-03T09:03:29.992Z,99.99
2022-11-03T09:04:19.856Z,99.99
2022-11-03T09:05:09.887Z,99.99
2022-11-03T09:05:59.853Z,99.99
2022-11-03T09:06:49.846Z,99.99
2022-11-03T09:11:00.803Z,99.99
2022-11-03T09:11:49.792Z,99.99
2022-11-03T09:12:39.794Z,99.99
2022-11-03T09:13:29.829Z,99.99
2022-11-03T09:14:19.771Z,99.99
2022-11-03T09:15:09.754Z,99.99
2022-11-03T09:15:59.752Z,99.99
2022-11-03T09:16:49.791Z,99.99
2022-11-03T09:17:41.959Z,99.99
2022-11-03T09:18:30.735Z,99.99
2022-11-03T09:19:19.698Z,99.99
2022-11-03T09:20:09.748Z,99.99
2022-11-03T09:20:59.690Z,99.99
2022-11-03T09:21:49.695Z,99.99
2022-11-03T09:22:39.654Z,99.99
2022-11-03T09:23:29.686Z,99.99
2022-11-03T09:24:19.661Z,99.99
2022-11-03T09:25:09.641Z,99.99
2022-11-03T09:25:59.652Z,99.99
2022-11-03T09:26:49.631Z,99.99
2022-11-03T09:27:39.601Z,99.99
2022-11-03T09:28:29.636Z,99.99
2022-11-03T09:29:19.588Z,99.99
2022-11-03T09:30:13.862Z,99.99
2022-11-03T09:30:59.570Z,99.99
2022-11-03T09:31:49.809Z,99.99
2022-11-03T09:32:39.550Z,99.99
2022-11-03T09:33:29.541Z,99.99
2022-11-03T09:34:19.541Z,99.99
2022-11-03T09:35:09.527Z,99.99
2022-11-03T09:35:59.516Z,99.99
2022-11-03T09:36:53.208Z,99.99
2022-11-03T09:37:39.720Z,99.99
2022-11-03T09:38:29.500Z,99.99
2022-11-03T09:39:19.519Z,99.99
2022-11-03T09:40:09.480Z,99.99
2022-11-03T09:40:59.475Z,99.99
2022-11-03T09:41:58.599Z,99.99
2022-11-03T09:42:40.469Z,99.99
2022-11-03T09:43:29.556Z,99.99
2022-11-03T09:44:19.429Z,99.99
2022-11-03T09:45:09.407Z,99.99
2022-11-03T09:45:59.397Z,99.99
2022-11-03T09:46:52.650Z,99.99
2022-11-03T09:47:40.389Z,99.99
2022-11-03T09:48:29.455Z,99.99
2022-11-03T09:49:19.358Z,99.99
2022-11-03T09:50:09.374Z,99.99
2022-11-03T09:50:59.358Z,99.99
2022-11-03T09:51:49.338Z,99.99
2022-11-03T09:52:39.574Z,99.99
2022-11-03T09:53:29.634Z,99.99
2022-11-03T09:54:19.545Z,99.99
2022-11-03T09:55:09.297Z,99.99
2022-11-03T09:55:59.298Z,99.99
2022-11-03T09:56:49.317Z,99.99
2022-11-03T09:57:39.268Z,99.99
2022-11-03T09:58:29.295Z,99.99
2022-11-03T09:59:19.285Z,99.99
2022-11-03T10:00:09.246Z,99.99
2022-11-03T10:00:59.274Z,99.99
2022-11-03T10:01:49.367Z,99.99
2022-11-03T10:02:39.216Z,99.99
2022-11-03T10:03:29.205Z,99.99
2022-11-03T10:04:19.204Z,99.99
2022-11-03T10:05:11.156Z,99.99
2022-11-03T10:05:59.196Z,99.99
2022-11-03T10:06:49.169Z,99.99
2022-11-03T10:07:39.153Z,99.99
2022-11-03T10:08:29.186Z,99.99
2022-11-03T10:09:19.134Z,99.99
2022-11-03T10:10:09.144Z,99.99
2022-11-03T10:10:59.156Z,99.99
2022-11-03T10:11:49.123Z,99.99
2022-11-03T10:12:39.093Z,99.99
2022-11-03T10:13:29.127Z,99.99
2022-11-03T10:14:19.087Z,99.99
2022-11-03T10:15:09.082Z,99.99
2022-11-03T10:15:59.072Z,99.99
2022-11-03T10:16:53.326Z,99.99
2022-11-03T10:17:39.050Z,99.99
2022-11-03T10:18:29.034Z,99.99
2022-11-03T10:19:19.024Z,99.99
2022-11-03T10:20:09.032Z,99.99
2022-11-03T10:20:59.013Z,99.99
2022-11-03T10:21:49.000Z,99.99
2022-11-03T10:22:41.182Z,99.99
2022-11-03T10:23:29.003Z,99.99
2022-11-03T10:24:18.962Z,99.99
2022-11-03T10:25:08.971Z,99.99
2022-11-03T10:25:58.963Z,99.99
2022-11-03T10:26:48.943Z,99.99
2022-11-03T10:27:38.932Z,99.99
2022-11-03T10:28:29.161Z,99.99
2022-11-03T10:30:08.915Z,99.99
2022-11-03T10:31:14.321Z,99.99
2022-11-03T10:31:49.903Z,99.99
2022-11-03T10:32:38.873Z,99.99
2022-11-03T10:33:28.876Z,99.99
2022-11-03T10:34:18.924Z,99.99
2022-11-03T10:35:08.858Z,99.99
2022-11-03T10:35:58.836Z,99.99
2022-11-03T10:36:50.723Z,99.99
2022-11-03T10:37:38.811Z,99.99
2022-11-03T10:38:28.820Z,99.98
2022-11-03T10:39:18.798Z,99.99
2022-11-03T10:40:13.246Z,99.99
2022-11-03T10:40:59.791Z,99.47
2022-11-03T10:41:48.770Z,99.57
2022-11-03T10:42:38.751Z,99.47
2022-11-03T10:43:28.751Z,99.57
2022-11-03T10:44:18.737Z,99.06
2022-11-03T10:45:08.767Z,98.71
2022-11-03T10:45:58.922Z,98.61
2022-11-03T10:46:51.242Z,98.91
2022-11-03T10:47:38.699Z,98.91